sensor_id;sensor_type;location;lat;lon;timestamp;temperature;humidity
57386;DHT22;62655;56.780;23.922;2022-09-09T00:00:41;5.10;99.90
57386;DHT22;62655;56.780;23.922;2022-09-09T00:03:16;5.10;99.90
57386;DHT22;62655;56.780;23.922;2022-09-09T00:08:40;5.00;99.90
57386;DHT22;62655;56.780;23.922;2022-09-09T00:11:12;4.90;99.90
57386;DHT22;62655;56.780;23.922;2022-09-09T00:13:49;4.90;99.90
57386;DHT22;62655;56.780;23.922;2022-09-09T00:16:25;4.90;99.90
57386;DHT22;62655;56.780;23.922;2022-09-09T00:24:52;4.90;99.90
57386;DHT22;62655;56.780;23.922;2022-09-09T00:27:46;4.90;99.90
57386;DHT22;62655;56.780;23.922;2022-09-09T00:32:48;4.90;99.90
57386;DHT22;62655;56.780;23.922;2022-09-09T00:35:36;4.90;99.90
57386;DHT22;62655;56.780;23.922;2022-09-09T00:38:16;4.90;99.90
57386;DHT22;62655;56.780;23.922;2022-09-09T00:43:27;4.90;99.90
57386;DHT22;62655;56.780;23.922;2022-09-09T00:49:26;4.80;99.90
57386;DHT22;62655;56.780;23.922;2022-09-09T00:54:54;4.70;99.90
57386;DHT22;62655;56.780;23.922;2022-09-09T00:57:32;4.60;99.90
57386;DHT22;62655;56.780;23.922;2022-09-09T01:07:48;4.70;99.90
57386;DHT22;62655;56.780;23.922;2022-09-09T01:10:52;4.70;99.90
57386;DHT22;62655;56.780;23.922;2022-09-09T01:13:27;4.70;99.90
57386;DHT22;62655;56.780;23.922;2022-09-09T01:15:59;4.60;99.90
57386;DHT22;62655;56.780;23.922;2022-09-09T01:18:41;4.60;99.90
57386;DHT22;62655;56.780;23.922;2022-09-09T01:21:37;4.60;99.90
57386;DHT22;62655;56.780;23.922;2022-09-09T01:24:29;4.60;99.90
57386;DHT22;62655;56.780;23.922;2022-09-09T01:27:02;4.50;99.90
57386;DHT22;62655;56.780;23.922;2022-09-09T01:29:31;4.60;99.90
57386;DHT22;62655;56.780;23.922;2022-09-09T01:32:02;4.60;99.90
57386;DHT22;62655;56.780;23.922;2022-09-09T01:34:38;4.60;99.90
57386;DHT22;62655;56.780;23.922;2022-09-09T01:37:10;4.50;99.90
57386;DHT22;62655;56.780;23.922;2022-09-09T01:39:41;4.60;99.90
57386;DHT22;62655;56.780;23.922;2022-09-09T01:42:13;4.60;99.90
57386;DHT22;62655;56.780;23.922;2022-09-09T01:44:42;4.50;99.90
57386;DHT22;62655;56.780;23.922;2022-09-09T01:47:09;4.50;99.90
57386;DHT22;62655;56.780;23.922;2022-09-09T01:49:37;4.50;99.90
57386;DHT22;62655;56.780;23.922;2022-09-09T01:52:04;4.50;99.90
57386;DHT22;62655;56.780;23.922;2022-09-09T01:54:32;4.50;99.90
57386;DHT22;62655;56.780;23.922;2022-09-09T01:57:18;4.50;99.90
57386;DHT22;62655;56.780;23.922;2022-09-09T02:00:01;4.50;99.90
57386;DHT22;62655;56.780;23.922;2022-09-09T02:05:39;4.40;99.90
57386;DHT22;62655;56.780;23.922;2022-09-09T02:09:09;4.40;99.90
57386;DHT22;62655;56.780;23.922;2022-09-09T02:11:17;4.40;99.90
57386;DHT22;62655;56.780;23.922;2022-09-09T02:13:47;4.40;99.90
57386;DHT22;62655;56.780;23.922;2022-09-09T02:16:21;4.30;99.90
57386;DHT22;62655;56.780;23.922;2022-09-09T02:19:02;4.40;99.90
57386;DHT22;62655;56.780;23.922;2022-09-09T02:21:32;4.40;99.90
57386;DHT22;62655;56.780;23.922;2022-09-09T02:24:05;4.40;99.90
57386;DHT22;62655;56.780;23.922;2022-09-09T02:26:40;4.40;99.90
57386;DHT22;62655;56.780;23.922;2022-09-09T02:29:14;4.30;99.90
57386;DHT22;62655;56.780;23.922;2022-09-09T02:31:44;4.40;99.90
57386;DHT22;62655;56.780;23.922;2022-09-09T02:34:14;4.30;99.90
57386;DHT22;62655;56.780;23.922;2022-09-09T02:36:44;4.30;99.90
57386;DHT22;62655;56.780;23.922;2022-09-09T02:39:13;4.20;99.90
57386;DHT22;62655;56.780;23.922;2022-09-09T02:41:41;4.20;99.90
57386;DHT22;62655;56.780;23.922;2022-09-09T02:44:14;4.20;99.90
57386;DHT22;62655;56.780;23.922;2022-09-09T02:47:00;4.20;99.90
57386;DHT22;62655;56.780;23.922;2022-09-09T02:52:27;4.20;99.90
57386;DHT22;62655;56.780;23.922;2022-09-09T02:55:02;4.20;99.90
57386;DHT22;62655;56.780;23.922;2022-09-09T02:57:33;4.20;99.90
57386;DHT22;62655;56.780;23.922;2022-09-09T03:00:01;4.20;99.90
57386;DHT22;62655;56.780;23.922;2022-09-09T03:02:29;4.10;99.90
57386;DHT22;62655;56.780;23.922;2022-09-09T03:04:57;4.10;99.90
57386;DHT22;62655;56.780;23.922;2022-09-09T03:07:25;4.10;99.90
57386;DHT22;62655;56.780;23.922;2022-09-09T03:09:52;4.00;99.90
57386;DHT22;62655;56.780;23.922;2022-09-09T03:12:21;4.00;99.90
57386;DHT22;62655;56.780;23.922;2022-09-09T03:14:48;4.00;99.90
57386;DHT22;62655;56.780;23.922;2022-09-09T03:17:16;4.10;99.90
57386;DHT22;62655;56.780;23.922;2022-09-09T03:19:44;4.00;99.90
57386;DHT22;62655;56.780;23.922;2022-09-09T03:22:11;4.20;99.90
57386;DHT22;62655;56.780;23.922;2022-09-09T03:24:40;4.20;99.90
57386;DHT22;62655;56.780;23.922;2022-09-09T03:27:08;4.20;99.90
57386;DHT22;62655;56.780;23.922;2022-09-09T03:29:35;4.20;99.90
57386;DHT22;62655;56.780;23.922;2022-09-09T03:32:02;4.20;99.90
57386;DHT22;62655;56.780;23.922;2022-09-09T03:34:30;4.20;99.90
57386;DHT22;62655;56.780;23.922;2022-09-09T03:36:58;4.20;99.90
57386;DHT22;62655;56.780;23.922;2022-09-09T03:39:25;4.30;99.90
57386;DHT22;62655;56.780;23.922;2022-09-09T03:41:53;4.30;99.90
57386;DHT22;62655;56.780;23.922;2022-09-09T03:44:20;4.30;99.90
57386;DHT22;62655;56.780;23.922;2022-09-09T03:46:48;4.30;99.90
57386;DHT22;62655;56.780;23.922;2022-09-09T03:49:15;4.30;99.90
57386;DHT22;62655;56.780;23.922;2022-09-09T03:51:44;4.30;99.90
57386;DHT22;62655;56.780;23.922;2022-09-09T03:54:11;4.30;99.90
57386;DHT22;62655;56.780;23.922;2022-09-09T03:56:39;4.30;99.90
57386;DHT22;62655;56.780;23.922;2022-09-09T03:59:09;4.30;99.90
57386;DHT22;62655;56.780;23.922;2022-09-09T04:01:36;4.30;99.90
57386;DHT22;62655;56.780;23.922;2022-09-09T04:04:04;4.40;99.90
57386;DHT22;62655;56.780;23.922;2022-09-09T04:06:31;4.40;99.90
57386;DHT22;62655;56.780;23.922;2022-09-09T04:08:58;4.40;99.90
57386;DHT22;62655;56.780;23.922;2022-09-09T04:11:26;4.50;99.90
57386;DHT22;62655;56.780;23.922;2022-09-09T04:13:54;4.50;99.90
57386;DHT22;62655;56.780;23.922;2022-09-09T04:16:21;4.50;99.90
57386;DHT22;62655;56.780;23.922;2022-09-09T04:18:49;4.50;99.90
57386;DHT22;62655;56.780;23.922;2022-09-09T04:21:16;4.50;99.90
57386;DHT22;62655;56.780;23.922;2022-09-09T04:23:44;4.50;99.90
57386;DHT22;62655;56.780;23.922;2022-09-09T04:26:12;4.50;99.90
57386;DHT22;62655;56.780;23.922;2022-09-09T04:28:39;4.60;99.90
57386;DHT22;62655;56.780;23.922;2022-09-09T04:31:16;4.70;99.90
57386;DHT22;62655;56.780;23.922;2022-09-09T04:33:45;4.80;99.90
57386;DHT22;62655;56.780;23.922;2022-09-09T04:36:13;5.00;99.90
57386;DHT22;62655;56.780;23.922;2022-09-09T04:38:41;5.30;99.90
57386;DHT22;62655;56.780;23.922;2022-09-09T04:41:08;5.60;99.90
57386;DHT22;62655;56.780;23.922;2022-09-09T04:43:38;5.90;99.90
57386;DHT22;62655;56.780;23.922;2022-09-09T04:46:06;6.10;99.90
57386;DHT22;62655;56.780;23.922;2022-09-09T04:48:34;6.20;99.90
57386;DHT22;62655;56.780;23.922;2022-09-09T04:51:04;6.30;99.90
57386;DHT22;62655;56.780;23.922;2022-09-09T04:53:32;6.40;99.90
57386;DHT22;62655;56.780;23.922;2022-09-09T04:56:19;6.40;99.90
57386;DHT22;62655;56.780;23.922;2022-09-09T04:58:47;6.60;99.90
57386;DHT22;62655;56.780;23.922;2022-09-09T05:01:17;6.70;99.90
57386;DHT22;62655;56.780;23.922;2022-09-09T05:03:46;6.80;99.90
57386;DHT22;62655;56.780;23.922;2022-09-09T05:06:16;6.90;99.90
57386;DHT22;62655;56.780;23.922;2022-09-09T05:08:44;6.90;99.90
57386;DHT22;62655;56.780;23.922;2022-09-09T05:11:20;7.00;99.90
57386;DHT22;62655;56.780;23.922;2022-09-09T05:13:51;7.20;99.90
57386;DHT22;62655;56.780;23.922;2022-09-09T05:16:20;7.30;99.90
57386;DHT22;62655;56.780;23.922;2022-09-09T05:18:48;7.60;99.90
57386;DHT22;62655;56.780;23.922;2022-09-09T05:21:19;7.80;99.90
57386;DHT22;62655;56.780;23.922;2022-09-09T05:23:47;7.70;99.90
57386;DHT22;62655;56.780;23.922;2022-09-09T05:26:16;7.60;99.90
57386;DHT22;62655;56.780;23.922;2022-09-09T05:28:45;7.40;99.90
57386;DHT22;62655;56.780;23.922;2022-09-09T05:31:13;7.00;99.90
57386;DHT22;62655;56.780;23.922;2022-09-09T05:33:43;6.80;99.90
57386;DHT22;62655;56.780;23.922;2022-09-09T05:36:18;6.80;99.90
57386;DHT22;62655;56.780;23.922;2022-09-09T05:38:46;6.80;99.90
57386;DHT22;62655;56.780;23.922;2022-09-09T05:41:14;6.80;99.90
57386;DHT22;62655;56.780;23.922;2022-09-09T05:43:45;7.00;99.90
57386;DHT22;62655;56.780;23.922;2022-09-09T05:46:18;7.30;99.90
57386;DHT22;62655;56.780;23.922;2022-09-09T05:48:47;7.90;99.90
57386;DHT22;62655;56.780;23.922;2022-09-09T05:51:19;8.80;99.90
57386;DHT22;62655;56.780;23.922;2022-09-09T05:53:49;9.60;99.90
57386;DHT22;62655;56.780;23.922;2022-09-09T05:56:18;10.10;99.90
57386;DHT22;62655;56.780;23.922;2022-09-09T05:58:46;10.50;99.90
57386;DHT22;62655;56.780;23.922;2022-09-09T06:01:17;10.60;99.90
57386;DHT22;62655;56.780;23.922;2022-09-09T06:03:47;10.80;99.90
57386;DHT22;62655;56.780;23.922;2022-09-09T06:06:20;10.90;99.90
57386;DHT22;62655;56.780;23.922;2022-09-09T06:08:51;11.00;99.90
57386;DHT22;62655;56.780;23.922;2022-09-09T06:11:23;11.30;99.90
57386;DHT22;62655;56.780;23.922;2022-09-09T06:13:52;11.50;99.90
57386;DHT22;62655;56.780;23.922;2022-09-09T06:16:24;11.90;99.90
57386;DHT22;62655;56.780;23.922;2022-09-09T06:18:53;12.20;99.90
57386;DHT22;62655;56.780;23.922;2022-09-09T06:21:23;12.50;99.90
57386;DHT22;62655;56.780;23.922;2022-09-09T06:23:52;12.50;99.90
57386;DHT22;62655;56.780;23.922;2022-09-09T06:26:31;12.70;99.90
57386;DHT22;62655;56.780;23.922;2022-09-09T06:29:00;12.80;99.90
57386;DHT22;62655;56.780;23.922;2022-09-09T06:31:33;12.30;99.90
57386;DHT22;62655;56.780;23.922;2022-09-09T06:34:01;11.90;99.90
57386;DHT22;62655;56.780;23.922;2022-09-09T06:36:30;12.40;99.90
57386;DHT22;62655;56.780;23.922;2022-09-09T06:38:59;13.10;99.90
57386;DHT22;62655;56.780;23.922;2022-09-09T06:41:29;13.50;99.90
57386;DHT22;62655;56.780;23.922;2022-09-09T06:43:57;13.30;99.90
57386;DHT22;62655;56.780;23.922;2022-09-09T06:46:27;13.40;99.90
57386;DHT22;62655;56.780;23.922;2022-09-09T06:48:56;13.60;99.90
57386;DHT22;62655;56.780;23.922;2022-09-09T06:51:29;13.50;99.90
57386;DHT22;62655;56.780;23.922;2022-09-09T06:53:59;13.70;99.90
57386;DHT22;62655;56.780;23.922;2022-09-09T06:56:34;14.20;99.90
57386;DHT22;62655;56.780;23.922;2022-09-09T06:59:06;14.60;99.90
57386;DHT22;62655;56.780;23.922;2022-09-09T07:01:37;14.40;99.90
57386;DHT22;62655;56.780;23.922;2022-09-09T07:04:05;14.90;99.90
57386;DHT22;62655;56.780;23.922;2022-09-09T07:06:35;15.70;99.90
57386;DHT22;62655;56.780;23.922;2022-09-09T07:09:05;15.70;99.00
57386;DHT22;62655;56.780;23.922;2022-09-09T07:11:37;15.50;99.00
57386;DHT22;62655;56.780;23.922;2022-09-09T07:14:06;14.80;99.90
57386;DHT22;62655;56.780;23.922;2022-09-09T07:16:34;14.70;99.90
57386;DHT22;62655;56.780;23.922;2022-09-09T07:19:04;14.90;99.00
57386;DHT22;62655;56.780;23.922;2022-09-09T07:21:33;14.90;99.70
57386;DHT22;62655;56.780;23.922;2022-09-09T07:24:01;15.10;98.30
57386;DHT22;62655;56.780;23.922;2022-09-09T07:26:30;15.40;98.00
57386;DHT22;62655;56.780;23.922;2022-09-09T07:28:58;14.90;98.50
57386;DHT22;62655;56.780;23.922;2022-09-09T07:31:33;15.10;98.20
57386;DHT22;62655;56.780;23.922;2022-09-09T07:34:04;15.20;98.30
57386;DHT22;62655;56.780;23.922;2022-09-09T07:36:39;15.70;97.70
57386;DHT22;62655;56.780;23.922;2022-09-09T07:39:09;16.40;96.80
57386;DHT22;62655;56.780;23.922;2022-09-09T07:41:42;16.80;95.60
57386;DHT22;62655;56.780;23.922;2022-09-09T07:44:16;16.20;94.90
57386;DHT22;62655;56.780;23.922;2022-09-09T07:46:44;17.00;94.50
57386;DHT22;62655;56.780;23.922;2022-09-09T07:49:13;16.80;94.90
57386;DHT22;62655;56.780;23.922;2022-09-09T07:51:43;17.80;94.40
57386;DHT22;62655;56.780;23.922;2022-09-09T07:54:13;17.50;93.20
57386;DHT22;62655;56.780;23.922;2022-09-09T07:56:42;16.50;93.80
57386;DHT22;62655;56.780;23.922;2022-09-09T07:59:10;17.40;93.40
57386;DHT22;62655;56.780;23.922;2022-09-09T08:01:40;16.90;92.90
57386;DHT22;62655;56.780;23.922;2022-09-09T08:04:11;16.10;93.10
57386;DHT22;62655;56.780;23.922;2022-09-09T08:07:01;17.20;94.40
57386;DHT22;62655;56.780;23.922;2022-09-09T08:09:30;18.20;91.70
57386;DHT22;62655;56.780;23.922;2022-09-09T08:11:59;18.40;90.60
57386;DHT22;62655;56.780;23.922;2022-09-09T08:14:29;17.90;91.00
57386;DHT22;62655;56.780;23.922;2022-09-09T08:16:57;16.90;91.00
57386;DHT22;62655;56.780;23.922;2022-09-09T08:19:25;16.90;90.60
57386;DHT22;62655;56.780;23.922;2022-09-09T08:21:53;17.10;91.00
57386;DHT22;62655;56.780;23.922;2022-09-09T08:24:21;17.60;91.90
57386;DHT22;62655;56.780;23.922;2022-09-09T08:26:50;18.20;90.10
57386;DHT22;62655;56.780;23.922;2022-09-09T08:29:18;17.80;87.80
57386;DHT22;62655;56.780;23.922;2022-09-09T08:31:48;18.00;88.90
57386;DHT22;62655;56.780;23.922;2022-09-09T08:34:16;18.30;88.20
57386;DHT22;62655;56.780;23.922;2022-09-09T08:36:45;18.50;87.40
57386;DHT22;62655;56.780;23.922;2022-09-09T09:18:33;18.00;79.40
57386;DHT22;62655;56.780;23.922;2022-09-09T09:21:39;18.10;79.70
57386;DHT22;62655;56.780;23.922;2022-09-09T09:24:18;18.50;79.80
57386;DHT22;62655;56.780;23.922;2022-09-09T09:26:48;19.20;80.00
57386;DHT22;62655;56.780;23.922;2022-09-09T09:29:18;19.80;79.00
57386;DHT22;62655;56.780;23.922;2022-09-09T09:31:55;20.50;76.60
57386;DHT22;62655;56.780;23.922;2022-09-09T09:34:24;20.60;75.80
57386;DHT22;62655;56.780;23.922;2022-09-09T09:36:57;20.70;75.40
57386;DHT22;62655;56.780;23.922;2022-09-09T09:39:30;21.00;75.80
57386;DHT22;62655;56.780;23.922;2022-09-09T09:42:18;20.10;75.20
57386;DHT22;62655;56.780;23.922;2022-09-09T09:44:49;19.70;76.90
57386;DHT22;62655;56.780;23.922;2022-09-09T09:47:19;18.40;77.50
57386;DHT22;62655;56.780;23.922;2022-09-09T09:49:58;17.60;79.40
57386;DHT22;62655;56.780;23.922;2022-09-09T09:52:28;17.80;79.80
57386;DHT22;62655;56.780;23.922;2022-09-09T09:54:56;17.80;80.40
57386;DHT22;62655;56.780;23.922;2022-09-09T09:57:29;17.40;80.60
57386;DHT22;62655;56.780;23.922;2022-09-09T10:52:51;19.10;79.20
57386;DHT22;62655;56.780;23.922;2022-09-09T10:55:27;20.60;75.90
57386;DHT22;62655;56.780;23.922;2022-09-09T10:57:58;20.80;73.60
57386;DHT22;62655;56.780;23.922;2022-09-09T11:00:42;20.10;74.50
57386;DHT22;62655;56.780;23.922;2022-09-09T11:03:28;20.50;74.10
57386;DHT22;62655;56.780;23.922;2022-09-09T11:06:11;19.00;74.70
57386;DHT22;62655;56.780;23.922;2022-09-09T11:08:41;18.70;77.60
57386;DHT22;62655;56.780;23.922;2022-09-09T11:11:19;18.90;78.20
57386;DHT22;62655;56.780;23.922;2022-09-09T11:16:38;19.30;78.30
57386;DHT22;62655;56.780;23.922;2022-09-09T11:21:55;20.80;76.40
57386;DHT22;62655;56.780;23.922;2022-09-09T11:24:39;21.40;74.10
57386;DHT22;62655;56.780;23.922;2022-09-09T11:27:32;20.80;75.30
57386;DHT22;62655;56.780;23.922;2022-09-09T11:36:01;22.30;71.10
57386;DHT22;62655;56.780;23.922;2022-09-09T11:38:49;22.10;70.90
57386;DHT22;62655;56.780;23.922;2022-09-09T11:41:20;21.50;70.10
57386;DHT22;62655;56.780;23.922;2022-09-09T11:43:51;21.50;71.20
57386;DHT22;62655;56.780;23.922;2022-09-09T11:59:54;20.30;71.30
57386;DHT22;62655;56.780;23.922;2022-09-09T12:02:27;18.70;76.50
57386;DHT22;62655;56.780;23.922;2022-09-09T12:05:08;17.80;78.60
57386;DHT22;62655;56.780;23.922;2022-09-09T12:07:40;17.20;79.60
57386;DHT22;62655;56.780;23.922;2022-09-09T12:10:23;17.20;81.90
57386;DHT22;62655;56.780;23.922;2022-09-09T12:12:52;17.30;79.90
57386;DHT22;62655;56.780;23.922;2022-09-09T12:15:24;17.00;80.90
57386;DHT22;62655;56.780;23.922;2022-09-09T12:17:53;16.80;81.10
57386;DHT22;62655;56.780;23.922;2022-09-09T12:20:26;16.90;82.90
57386;DHT22;62655;56.780;23.922;2022-09-09T12:31:15;17.00;81.30
57386;DHT22;62655;56.780;23.922;2022-09-09T12:33:45;17.10;83.20
57386;DHT22;62655;56.780;23.922;2022-09-09T12:36:15;16.60;82.90
57386;DHT22;62655;56.780;23.922;2022-09-09T12:38:44;16.90;84.80
57386;DHT22;62655;56.780;23.922;2022-09-09T12:41:24;17.10;82.00
57386;DHT22;62655;56.780;23.922;2022-09-09T12:44:03;17.40;82.70
57386;DHT22;62655;56.780;23.922;2022-09-09T12:48:59;17.60;81.40
57386;DHT22;62655;56.780;23.922;2022-09-09T12:51:30;18.00;80.20
57386;DHT22;62655;56.780;23.922;2022-09-09T12:53:58;18.50;79.70
57386;DHT22;62655;56.780;23.922;2022-09-09T12:56:26;20.20;76.60
57386;DHT22;62655;56.780;23.922;2022-09-09T12:58:55;19.50;75.60
57386;DHT22;62655;56.780;23.922;2022-09-09T13:01:24;21.20;75.00
57386;DHT22;62655;56.780;23.922;2022-09-09T13:03:52;21.80;73.80
57386;DHT22;62655;56.780;23.922;2022-09-09T13:06:21;20.70;73.50
57386;DHT22;62655;56.780;23.922;2022-09-09T13:08:55;20.40;74.90
57386;DHT22;62655;56.780;23.922;2022-09-09T13:14:02;19.90;75.70
57386;DHT22;62655;56.780;23.922;2022-09-09T13:16:30;20.30;76.30
57386;DHT22;62655;56.780;23.922;2022-09-09T13:19:07;21.80;72.80
57386;DHT22;62655;56.780;23.922;2022-09-09T13:21:38;19.90;74.40
57386;DHT22;62655;56.780;23.922;2022-09-09T13:24:06;20.50;73.30
57386;DHT22;62655;56.780;23.922;2022-09-09T13:26:53;21.00;75.20
57386;DHT22;62655;56.780;23.922;2022-09-09T13:29:22;22.60;71.60
57386;DHT22;62655;56.780;23.922;2022-09-09T13:31:50;23.50;68.60
57386;DHT22;62655;56.780;23.922;2022-09-09T13:34:26;23.20;68.50
57386;DHT22;62655;56.780;23.922;2022-09-09T13:37:00;22.30;69.60
57386;DHT22;62655;56.780;23.922;2022-09-09T13:39:35;21.00;71.30
57386;DHT22;62655;56.780;23.922;2022-09-09T13:42:03;19.50;75.20
57386;DHT22;62655;56.780;23.922;2022-09-09T13:44:36;20.30;73.20
57386;DHT22;62655;56.780;23.922;2022-09-09T13:47:05;20.00;74.00
57386;DHT22;62655;56.780;23.922;2022-09-09T13:49:36;20.00;73.80
57386;DHT22;62655;56.780;23.922;2022-09-09T13:52:10;20.80;74.90
57386;DHT22;62655;56.780;23.922;2022-09-09T13:54:39;21.60;71.60
57386;DHT22;62655;56.780;23.922;2022-09-09T13:57:16;21.70;69.60
57386;DHT22;62655;56.780;23.922;2022-09-09T13:59:45;22.10;70.30
57386;DHT22;62655;56.780;23.922;2022-09-09T14:02:31;21.40;71.20
57386;DHT22;62655;56.780;23.922;2022-09-09T14:04:58;19.70;74.00
57386;DHT22;62655;56.780;23.922;2022-09-09T14:07:26;19.80;75.90
57386;DHT22;62655;56.780;23.922;2022-09-09T14:09:53;20.00;74.90
57386;DHT22;62655;56.780;23.922;2022-09-09T14:12:20;19.20;75.10
57386;DHT22;62655;56.780;23.922;2022-09-09T14:14:48;19.20;76.80
57386;DHT22;62655;56.780;23.922;2022-09-09T14:17:15;19.20;76.70
57386;DHT22;62655;56.780;23.922;2022-09-09T14:19:42;19.80;76.30
57386;DHT22;62655;56.780;23.922;2022-09-09T14:22:09;20.70;74.80
57386;DHT22;62655;56.780;23.922;2022-09-09T14:24:37;21.20;72.30
57386;DHT22;62655;56.780;23.922;2022-09-09T14:27:04;20.40;73.40
57386;DHT22;62655;56.780;23.922;2022-09-09T14:29:32;20.70;73.60
57386;DHT22;62655;56.780;23.922;2022-09-09T14:32:00;19.80;75.20
57386;DHT22;62655;56.780;23.922;2022-09-09T14:34:32;19.40;76.40
57386;DHT22;62655;56.780;23.922;2022-09-09T14:37:00;19.20;75.20
57386;DHT22;62655;56.780;23.922;2022-09-09T14:39:27;20.10;73.30
57386;DHT22;62655;56.780;23.922;2022-09-09T14:41:54;19.80;74.10
57386;DHT22;62655;56.780;23.922;2022-09-09T14:44:22;19.30;75.30
57386;DHT22;62655;56.780;23.922;2022-09-09T14:46:49;18.80;75.90
57386;DHT22;62655;56.780;23.922;2022-09-09T14:49:17;18.90;77.40
57386;DHT22;62655;56.780;23.922;2022-09-09T14:51:44;18.60;77.50
57386;DHT22;62655;56.780;23.922;2022-09-09T14:54:11;17.40;79.70
57386;DHT22;62655;56.780;23.922;2022-09-09T14:56:38;17.00;81.80
57386;DHT22;62655;56.780;23.922;2022-09-09T14:59:05;16.50;83.20
57386;DHT22;62655;56.780;23.922;2022-09-09T15:01:33;16.40;83.80
57386;DHT22;62655;56.780;23.922;2022-09-09T15:04:02;16.20;85.10
57386;DHT22;62655;56.780;23.922;2022-09-09T15:06:32;16.10;84.20
57386;DHT22;62655;56.780;23.922;2022-09-09T15:09:00;16.20;86.30
57386;DHT22;62655;56.780;23.922;2022-09-09T15:11:29;16.10;84.30
57386;DHT22;62655;56.780;23.922;2022-09-09T15:13:57;15.80;85.00
57386;DHT22;62655;56.780;23.922;2022-09-09T15:16:26;15.70;85.40
57386;DHT22;62655;56.780;23.922;2022-09-09T15:18:55;15.50;86.50
57386;DHT22;62655;56.780;23.922;2022-09-09T15:21:23;15.60;86.20
57386;DHT22;62655;56.780;23.922;2022-09-09T15:23:51;15.60;86.10
57386;DHT22;62655;56.780;23.922;2022-09-09T15:26:20;15.50;86.30
57386;DHT22;62655;56.780;23.922;2022-09-09T15:28:48;15.40;86.40
57386;DHT22;62655;56.780;23.922;2022-09-09T15:31:17;15.30;87.50
57386;DHT22;62655;56.780;23.922;2022-09-09T15:36:20;15.20;88.70
57386;DHT22;62655;56.780;23.922;2022-09-09T15:38:47;15.10;88.70
57386;DHT22;62655;56.780;23.922;2022-09-09T15:41:15;15.10;88.80
57386;DHT22;62655;56.780;23.922;2022-09-09T15:43:43;15.10;89.40
57386;DHT22;62655;56.780;23.922;2022-09-09T15:49:15;15.00;90.10
57386;DHT22;62655;56.780;23.922;2022-09-09T15:51:45;14.80;90.40
57386;DHT22;62655;56.780;23.922;2022-09-09T15:54:14;14.70;90.80
57386;DHT22;62655;56.780;23.922;2022-09-09T15:56:44;14.60;90.80
57386;DHT22;62655;56.780;23.922;2022-09-09T15:59:12;14.50;91.00
57386;DHT22;62655;56.780;23.922;2022-09-09T16:01:39;14.40;91.30
57386;DHT22;62655;56.780;23.922;2022-09-09T16:04:06;14.30;91.40
57386;DHT22;62655;56.780;23.922;2022-09-09T16:06:34;14.30;91.60
57386;DHT22;62655;56.780;23.922;2022-09-09T16:09:02;14.20;91.80
57386;DHT22;62655;56.780;23.922;2022-09-09T16:11:32;14.10;91.80
57386;DHT22;62655;56.780;23.922;2022-09-09T16:13:59;14.00;91.60
57386;DHT22;62655;56.780;23.922;2022-09-09T16:16:27;14.00;91.80
57386;DHT22;62655;56.780;23.922;2022-09-09T16:18:56;13.90;92.20
57386;DHT22;62655;56.780;23.922;2022-09-09T16:21:27;13.80;92.40
57386;DHT22;62655;56.780;23.922;2022-09-09T16:23:58;13.70;92.40
57386;DHT22;62655;56.780;23.922;2022-09-09T16:26:27;13.60;92.70
57386;DHT22;62655;56.780;23.922;2022-09-09T16:28:54;13.50;92.80
57386;DHT22;62655;56.780;23.922;2022-09-09T16:31:22;13.50;93.10
57386;DHT22;62655;56.780;23.922;2022-09-09T16:33:50;13.40;93.60
57386;DHT22;62655;56.780;23.922;2022-09-09T16:36:19;13.20;93.60
57386;DHT22;62655;56.780;23.922;2022-09-09T16:38:47;13.10;93.80
57386;DHT22;62655;56.780;23.922;2022-09-09T16:41:14;13.10;93.90
57386;DHT22;62655;56.780;23.922;2022-09-09T16:43:42;13.10;94.20
57386;DHT22;62655;56.780;23.922;2022-09-09T16:46:12;12.90;94.70
57386;DHT22;62655;56.780;23.922;2022-09-09T16:48:42;12.70;95.20
57386;DHT22;62655;56.780;23.922;2022-09-09T16:51:16;12.60;96.00
57386;DHT22;62655;56.780;23.922;2022-09-09T16:53:44;12.40;96.20
57386;DHT22;62655;56.780;23.922;2022-09-09T16:56:12;12.30;96.50
57386;DHT22;62655;56.780;23.922;2022-09-09T16:58:40;12.20;96.70
57386;DHT22;62655;56.780;23.922;2022-09-09T17:01:09;12.10;96.80
57386;DHT22;62655;56.780;23.922;2022-09-09T17:03:41;12.00;97.30
57386;DHT22;62655;56.780;23.922;2022-09-09T17:06:12;11.80;97.70
57386;DHT22;62655;56.780;23.922;2022-09-09T17:08:39;11.70;98.40
57386;DHT22;62655;56.780;23.922;2022-09-09T17:11:14;11.60;98.30
57386;DHT22;62655;56.780;23.922;2022-09-09T17:13:42;11.60;98.60
57386;DHT22;62655;56.780;23.922;2022-09-09T17:16:10;11.50;98.80
57386;DHT22;62655;56.780;23.922;2022-09-09T17:18:38;11.70;99.30
57386;DHT22;62655;56.780;23.922;2022-09-09T17:21:15;11.60;98.80
57386;DHT22;62655;56.780;23.922;2022-09-09T17:23:43;11.50;98.80
57386;DHT22;62655;56.780;23.922;2022-09-09T17:26:12;11.50;99.40
57386;DHT22;62655;56.780;23.922;2022-09-09T17:28:40;11.30;99.80
57386;DHT22;62655;56.780;23.922;2022-09-09T17:31:08;11.20;99.90
57386;DHT22;62655;56.780;23.922;2022-09-09T17:33:36;11.30;99.90
57386;DHT22;62655;56.780;23.922;2022-09-09T17:36:09;11.00;99.90
57386;DHT22;62655;56.780;23.922;2022-09-09T17:38:37;11.00;99.90
57386;DHT22;62655;56.780;23.922;2022-09-09T17:41:06;10.80;99.90
57386;DHT22;62655;56.780;23.922;2022-09-09T17:43:33;10.70;99.90
57386;DHT22;62655;56.780;23.922;2022-09-09T17:46:14;10.10;99.90
57386;DHT22;62655;56.780;23.922;2022-09-09T17:48:42;10.30;99.90
57386;DHT22;62655;56.780;23.922;2022-09-09T17:51:12;10.20;99.90
57386;DHT22;62655;56.780;23.922;2022-09-09T17:53:41;10.20;99.90
57386;DHT22;62655;56.780;23.922;2022-09-09T17:56:09;10.00;99.90
57386;DHT22;62655;56.780;23.922;2022-09-09T17:58:37;10.00;99.90
57386;DHT22;62655;56.780;23.922;2022-09-09T18:01:06;10.00;99.90
57386;DHT22;62655;56.780;23.922;2022-09-09T18:03:38;9.90;99.90
57386;DHT22;62655;56.780;23.922;2022-09-09T18:06:07;9.90;99.90
57386;DHT22;62655;56.780;23.922;2022-09-09T18:08:34;9.90;99.90
57386;DHT22;62655;56.780;23.922;2022-09-09T18:11:03;9.90;99.90
57386;DHT22;62655;56.780;23.922;2022-09-09T18:13:30;9.90;99.90
57386;DHT22;62655;56.780;23.922;2022-09-09T18:15:57;10.00;99.90
57386;DHT22;62655;56.780;23.922;2022-09-09T18:18:25;10.00;99.90
57386;DHT22;62655;56.780;23.922;2022-09-09T18:21:06;10.00;99.90
57386;DHT22;62655;56.780;23.922;2022-09-09T18:23:34;10.00;99.90
57386;DHT22;62655;56.780;23.922;2022-09-09T18:26:08;9.90;99.90
57386;DHT22;62655;56.780;23.922;2022-09-09T18:28:37;9.80;99.90
57386;DHT22;62655;56.780;23.922;2022-09-09T18:31:09;9.80;99.90
57386;DHT22;62655;56.780;23.922;2022-09-09T18:33:37;9.80;99.90
57386;DHT22;62655;56.780;23.922;2022-09-09T18:36:07;9.70;99.90